sensor_id;sensor_type;location;lat;lon;timestamp;P1;durP1;ratioP1;P2;durP2;ratioP2
15677;SDS011;7939;50.814;6.368;2023-04-29T00:02:17;17.05;;;10.77;;
15677;SDS011;7939;50.814;6.368;2023-04-29T00:04:44;15.82;;;9.38;;
15677;SDS011;7939;50.814;6.368;2023-04-29T00:07:11;17.60;;;11.45;;
15677;SDS011;7939;50.814;6.368;2023-04-29T00:09:40;18.63;;;10.80;;
15677;SDS011;7939;50.814;6.368;2023-04-29T00:12:06;16.77;;;10.55;;
15677;SDS011;7939;50.814;6.368;2023-04-29T00:14:34;19.60;;;11.23;;
15677;SDS011;7939;50.814;6.368;2023-04-29T00:17:01;18.50;;;10.90;;
15677;SDS011;7939;50.814;6.368;2023-04-29T00:19:28;16.38;;;10.40;;
15677;SDS011;7939;50.814;6.368;2023-04-29T00:21:55;17.63;;;9.82;;
15677;SDS011;7939;50.814;6.368;2023-04-29T00:24:22;15.55;;;9.95;;
15677;SDS011;7939;50.814;6.368;2023-04-29T00:26:48;16.38;;;10.45;;
15677;SDS011;7939;50.814;6.368;2023-04-29T00:29:15;16.15;;;9.98;;
15677;SDS011;7939;50.814;6.368;2023-04-29T00:31:42;13.75;;;8.60;;
15677;SDS011;7939;50.814;6.368;2023-04-29T00:34:10;12.80;;;8.00;;
15677;SDS011;7939;50.814;6.368;2023-04-29T00:36:38;15.38;;;9.48;;
15677;SDS011;7939;50.814;6.368;2023-04-29T00:39:04;16.45;;;9.95;;
15677;SDS011;7939;50.814;6.368;2023-04-29T00:41:32;18.75;;;10.65;;
15677;SDS011;7939;50.814;6.368;2023-04-29T00:43:58;15.90;;;10.13;;
15677;SDS011;7939;50.814;6.368;2023-04-29T00:46:25;16.85;;;10.20;;
15677;SDS011;7939;50.814;6.368;2023-04-29T00:48:51;15.88;;;10.05;;
15677;SDS011;7939;50.814;6.368;2023-04-29T00:51:18;16.13;;;10.20;;
15677;SDS011;7939;50.814;6.368;2023-04-29T00:53:46;19.77;;;11.05;;
15677;SDS011;7939;50.814;6.368;2023-04-29T00:56:13;16.30;;;10.40;;
15677;SDS011;7939;50.814;6.368;2023-04-29T00:58:40;16.30;;;10.52;;
15677;SDS011;7939;50.814;6.368;2023-04-29T01:01:13;17.90;;;10.35;;
15677;SDS011;7939;50.814;6.368;2023-04-29T01:03:41;14.13;;;9.57;;
15677;SDS011;7939;50.814;6.368;2023-04-29T01:06:11;15.27;;;10.20;;
15677;SDS011;7939;50.814;6.368;2023-04-29T01:08:51;17.50;;;10.63;;
15677;SDS011;7939;50.814;6.368;2023-04-29T01:11:26;18.30;;;10.82;;
15677;SDS011;7939;50.814;6.368;2023-04-29T01:14:00;19.35;;;9.95;;
15677;SDS011;7939;50.814;6.368;2023-04-29T01:16:29;20.80;;;10.70;;
15677;SDS011;7939;50.814;6.368;2023-04-29T01:19:05;20.00;;;11.02;;
15677;SDS011;7939;50.814;6.368;2023-04-29T01:21:45;19.40;;;11.18;;
15677;SDS011;7939;50.814;6.368;2023-04-29T01:24:15;20.55;;;11.98;;
15677;SDS011;7939;50.814;6.368;2023-04-29T01:26:42;17.38;;;11.25;;
15677;SDS011;7939;50.814;6.368;2023-04-29T01:29:17;20.73;;;12.13;;
15677;SDS011;7939;50.814;6.368;2023-04-29T01:31:54;21.10;;;12.40;;
15677;SDS011;7939;50.814;6.368;2023-04-29T01:34:29;23.35;;;12.40;;
15677;SDS011;7939;50.814;6.368;2023-04-29T01:37:02;20.80;;;12.02;;
15677;SDS011;7939;50.814;6.368;2023-04-29T01:39:40;19.92;;;11.82;;
15677;SDS011;7939;50.814;6.368;2023-04-29T01:42:13;22.95;;;12.70;;
15677;SDS011;7939;50.814;6.368;2023-04-29T01:44:44;20.77;;;12.57;;
15677;SDS011;7939;50.814;6.368;2023-04-29T01:47:14;23.23;;;13.85;;
15677;SDS011;7939;50.814;6.368;2023-04-29T01:49:41;22.77;;;13.50;;
15677;SDS011;7939;50.814;6.368;2023-04-29T01:52:10;26.20;;;14.35;;
15677;SDS011;7939;50.814;6.368;2023-04-29T01:54:38;23.63;;;14.68;;
15677;SDS011;7939;50.814;6.368;2023-04-29T01:57:05;25.17;;;14.68;;
15677;SDS011;7939;50.814;6.368;2023-04-29T01:59:31;25.30;;;15.02;;
15677;SDS011;7939;50.814;6.368;2023-04-29T02:01:58;23.48;;;14.18;;
15677;SDS011;7939;50.814;6.368;2023-04-29T02:04:24;25.02;;;14.48;;
15677;SDS011;7939;50.814;6.368;2023-04-29T02:06:51;20.45;;;12.10;;
15677;SDS011;7939;50.814;6.368;2023-04-29T02:09:18;23.95;;;14.02;;
15677;SDS011;7939;50.814;6.368;2023-04-29T02:11:46;21.33;;;12.82;;
15677;SDS011;7939;50.814;6.368;2023-04-29T02:14:12;21.27;;;12.80;;
15677;SDS011;7939;50.814;6.368;2023-04-29T02:16:39;25.00;;;13.48;;
15677;SDS011;7939;50.814;6.368;2023-04-29T02:19:09;22.27;;;14.25;;
15677;SDS011;7939;50.814;6.368;2023-04-29T02:21:35;22.52;;;13.65;;
15677;SDS011;7939;50.814;6.368;2023-04-29T02:24:04;25.70;;;13.32;;
15677;SDS011;7939;50.814;6.368;2023-04-29T02:26:31;22.67;;;12.68;;
15677;SDS011;7939;50.814;6.368;2023-04-29T02:28:59;24.27;;;14.02;;
15677;SDS011;7939;50.814;6.368;2023-04-29T02:31:27;26.30;;;13.60;;
15677;SDS011;7939;50.814;6.368;2023-04-29T02:33:54;25.17;;;14.30;;
15677;SDS011;7939;50.814;6.368;2023-04-29T02:36:20;24.88;;;14.00;;
15677;SDS011;7939;50.814;6.368;2023-04-29T02:38:48;22.77;;;13.07;;
15677;SDS011;7939;50.814;6.368;2023-04-29T02:41:15;26.35;;;13.20;;
15677;SDS011;7939;50.814;6.368;2023-04-29T02:43:43;24.35;;;12.85;;
15677;SDS011;7939;50.814;6.368;2023-04-29T02:46:11;22.10;;;12.60;;
15677;SDS011;7939;50.814;6.368;2023-04-29T02:48:38;28.40;;;15.30;;
15677;SDS011;7939;50.814;6.368;2023-04-29T02:51:04;21.90;;;12.85;;
15677;SDS011;7939;50.814;6.368;2023-04-29T02:53:31;27.52;;;14.82;;
15677;SDS011;7939;50.814;6.368;2023-04-29T02:55:58;26.08;;;14.55;;
15677;SDS011;7939;50.814;6.368;2023-04-29T02:58:24;23.80;;;14.65;;
15677;SDS011;7939;50.814;6.368;2023-04-29T03:00:51;25.65;;;13.55;;
15677;SDS011;7939;50.814;6.368;2023-04-29T03:03:19;25.50;;;14.68;;
15677;SDS011;7939;50.814;6.368;2023-04-29T03:05:47;26.88;;;15.40;;
15677;SDS011;7939;50.814;6.368;2023-04-29T03:08:14;25.02;;;14.75;;
15677;SDS011;7939;50.814;6.368;2023-04-29T03:10:41;24.45;;;15.07;;
15677;SDS011;7939;50.814;6.368;2023-04-29T03:13:07;29.00;;;15.02;;
15677;SDS011;7939;50.814;6.368;2023-04-29T03:15:34;29.05;;;15.15;;
15677;SDS011;7939;50.814;6.368;2023-04-29T03:18:00;29.02;;;16.33;;
15677;SDS011;7939;50.814;6.368;2023-04-29T03:20:30;28.80;;;16.58;;
15677;SDS011;7939;50.814;6.368;2023-04-29T03:22:56;31.20;;;17.92;;
15677;SDS011;7939;50.814;6.368;2023-04-29T03:25:24;26.90;;;16.30;;
15677;SDS011;7939;50.814;6.368;2023-04-29T03:27:52;32.25;;;17.75;;
15677;SDS011;7939;50.814;6.368;2023-04-29T03:30:19;39.17;;;21.17;;
15677;SDS011;7939;50.814;6.368;2023-04-29T03:32:46;38.40;;;23.30;;
15677;SDS011;7939;50.814;6.368;2023-04-29T03:35:13;44.10;;;23.80;;
15677;SDS011;7939;50.814;6.368;2023-04-29T03:37:41;44.83;;;25.23;;
15677;SDS011;7939;50.814;6.368;2023-04-29T03:40:08;47.13;;;24.65;;
15677;SDS011;7939;50.814;6.368;2023-04-29T03:42:36;54.53;;;29.13;;
15677;SDS011;7939;50.814;6.368;2023-04-29T03:45:03;56.60;;;27.80;;
15677;SDS011;7939;50.814;6.368;2023-04-29T03:47:30;55.22;;;27.98;;
15677;SDS011;7939;50.814;6.368;2023-04-29T03:49:57;57.05;;;27.92;;
15677;SDS011;7939;50.814;6.368;2023-04-29T03:52:23;57.20;;;28.05;;
15677;SDS011;7939;50.814;6.368;2023-04-29T03:54:51;59.20;;;29.52;;
15677;SDS011;7939;50.814;6.368;2023-04-29T03:57:18;54.10;;;28.73;;
15677;SDS011;7939;50.814;6.368;2023-04-29T03:59:45;55.83;;;28.58;;
15677;SDS011;7939;50.814;6.368;2023-04-29T04:02:14;53.30;;;27.20;;
15677;SDS011;7939;50.814;6.368;2023-04-29T04:04:40;51.90;;;26.52;;
15677;SDS011;7939;50.814;6.368;2023-04-29T04:07:07;60.10;;;28.27;;
15677;SDS011;7939;50.814;6.368;2023-04-29T04:09:34;56.95;;;28.63;;
15677;SDS011;7939;50.814;6.368;2023-04-29T04:12:02;55.70;;;29.70;;
15677;SDS011;7939;50.814;6.368;2023-04-29T04:14:29;60.33;;;30.08;;
15677;SDS011;7939;50.814;6.368;2023-04-29T04:16:56;57.35;;;29.20;;
15677;SDS011;7939;50.814;6.368;2023-04-29T04:19:22;57.85;;;28.40;;
15677;SDS011;7939;50.814;6.368;2023-04-29T04:21:51;63.00;;;29.98;;
15677;SDS011;7939;50.814;6.368;2023-04-29T04:24:18;57.75;;;29.38;;
15677;SDS011;7939;50.814;6.368;2023-04-29T04:26:45;64.75;;;31.65;;
15677;SDS011;7939;50.814;6.368;2023-04-29T04:29:13;51.47;;;27.20;;
15677;SDS011;7939;50.814;6.368;2023-04-29T04:31:40;53.35;;;27.98;;
15677;SDS011;7939;50.814;6.368;2023-04-29T04:34:07;59.45;;;28.85;;
15677;SDS011;7939;50.814;6.368;2023-04-29T04:36:33;62.72;;;30.23;;
15677;SDS011;7939;50.814;6.368;2023-04-29T04:39:01;64.78;;;32.67;;
15677;SDS011;7939;50.814;6.368;2023-04-29T04:41:27;66.75;;;32.28;;
15677;SDS011;7939;50.814;6.368;2023-04-29T04:43:55;65.45;;;32.53;;
15677;SDS011;7939;50.814;6.368;2023-04-29T04:46:24;69.85;;;30.05;;
15677;SDS011;7939;50.814;6.368;2023-04-29T04:48:50;63.42;;;30.23;;
15677;SDS011;7939;50.814;6.368;2023-04-29T04:51:17;57.70;;;29.50;;
15677;SDS011;7939;50.814;6.368;2023-04-29T04:53:44;54.05;;;29.95;;
15677;SDS011;7939;50.814;6.368;2023-04-29T04:56:11;55.60;;;27.77;;
15677;SDS011;7939;50.814;6.368;2023-04-29T04:58:38;58.00;;;27.02;;
15677;SDS011;7939;50.814;6.368;2023-04-29T05:01:04;59.60;;;27.52;;
15677;SDS011;7939;50.814;6.368;2023-04-29T05:03:32;55.17;;;26.20;;
15677;SDS011;7939;50.814;6.368;2023-04-29T05:05:59;49.83;;;23.67;;
15677;SDS011;7939;50.814;6.368;2023-04-29T05:08:26;49.90;;;24.35;;
15677;SDS011;7939;50.814;6.368;2023-04-29T05:10:52;53.25;;;25.02;;
15677;SDS011;7939;50.814;6.368;2023-04-29T05:13:19;47.80;;;23.80;;
15677;SDS011;7939;50.814;6.368;2023-04-29T05:15:45;52.22;;;24.00;;
15677;SDS011;7939;50.814;6.368;2023-04-29T05:18:12;42.92;;;22.35;;
15677;SDS011;7939;50.814;6.368;2023-04-29T05:20:40;45.90;;;22.95;;
15677;SDS011;7939;50.814;6.368;2023-04-29T05:23:07;47.88;;;24.00;;
15677;SDS011;7939;50.814;6.368;2023-04-29T05:25:34;36.85;;;21.27;;
15677;SDS011;7939;50.814;6.368;2023-04-29T05:28:01;40.08;;;21.52;;
15677;SDS011;7939;50.814;6.368;2023-04-29T05:30:28;41.78;;;21.40;;
15677;SDS011;7939;50.814;6.368;2023-04-29T05:32:54;40.30;;;20.55;;
15677;SDS011;7939;50.814;6.368;2023-04-29T05:35:21;33.83;;;19.50;;
15677;SDS011;7939;50.814;6.368;2023-04-29T05:37:51;39.35;;;19.30;;
15677;SDS011;7939;50.814;6.368;2023-04-29T05:40:17;34.55;;;19.13;;
15677;SDS011;7939;50.814;6.368;2023-04-29T05:42:44;34.30;;;18.23;;
15677;SDS011;7939;50.814;6.368;2023-04-29T05:45:11;32.05;;;17.10;;
15677;SDS011;7939;50.814;6.368;2023-04-29T05:47:37;33.08;;;17.33;;
15677;SDS011;7939;50.814;6.368;2023-04-29T05:50:04;27.73;;;14.85;;
15677;SDS011;7939;50.814;6.368;2023-04-29T05:52:31;25.85;;;14.73;;
15677;SDS011;7939;50.814;6.368;2023-04-29T05:55:00;25.02;;;14.10;;
15677;SDS011;7939;50.814;6.368;2023-04-29T05:57:27;27.88;;;14.65;;
15677;SDS011;7939;50.814;6.368;2023-04-29T05:59:54;23.80;;;12.75;;
15677;SDS011;7939;50.814;6.368;2023-04-29T06:02:21;25.05;;;12.93;;
15677;SDS011;7939;50.814;6.368;2023-04-29T06:04:48;24.80;;;14.85;;
15677;SDS011;7939;50.814;6.368;2023-04-29T06:07:15;28.13;;;14.90;;
15677;SDS011;7939;50.814;6.368;2023-04-29T06:09:43;24.50;;;14.30;;
15677;SDS011;7939;50.814;6.368;2023-04-29T06:12:11;24.55;;;13.50;;
15677;SDS011;7939;50.814;6.368;2023-04-29T06:14:38;23.85;;;13.43;;
15677;SDS011;7939;50.814;6.368;2023-04-29T06:17:04;24.80;;;13.75;;
15677;SDS011;7939;50.814;6.368;2023-04-29T06:19:31;21.90;;;12.30;;
15677;SDS011;7939;50.814;6.368;2023-04-29T06:21:58;23.00;;;11.55;;
15677;SDS011;7939;50.814;6.368;2023-04-29T06:24:25;19.98;;;12.20;;
15677;SDS011;7939;50.814;6.368;2023-04-29T06:26:51;18.27;;;11.93;;
15677;SDS011;7939;50.814;6.368;2023-04-29T06:29:19;21.38;;;11.88;;
15677;SDS011;7939;50.814;6.368;2023-04-29T06:31:46;21.13;;;11.10;;
15677;SDS011;7939;50.814;6.368;2023-04-29T06:34:12;20.70;;;12.13;;
15677;SDS011;7939;50.814;6.368;2023-04-29T06:36:39;18.67;;;11.75;;
15677;SDS011;7939;50.814;6.368;2023-04-29T06:39:06;19.27;;;11.18;;
15677;SDS011;7939;50.814;6.368;2023-04-29T06:41:33;20.50;;;11.93;;
15677;SDS011;7939;50.814;6.368;2023-04-29T06:44:01;18.77;;;11.13;;
15677;SDS011;7939;50.814;6.368;2023-04-29T06:46:28;19.73;;;12.10;;
15677;SDS011;7939;50.814;6.368;2023-04-29T06:48:55;21.52;;;11.77;;
15677;SDS011;7939;50.814;6.368;2023-04-29T06:51:22;21.58;;;11.70;;
15677;SDS011;7939;50.814;6.368;2023-04-29T06:53:49;20.70;;;11.27;;
15677;SDS011;7939;50.814;6.368;2023-04-29T06:56:15;19.70;;;12.18;;
15677;SDS011;7939;50.814;6.368;2023-04-29T06:58:42;20.27;;;11.65;;
15677;SDS011;7939;50.814;6.368;2023-04-29T07:01:09;21.38;;;12.18;;
15677;SDS011;7939;50.814;6.368;2023-04-29T07:03:37;21.98;;;11.02;;
15677;SDS011;7939;50.814;6.368;2023-04-29T07:06:03;21.15;;;11.98;;
15677;SDS011;7939;50.814;6.368;2023-04-29T07:08:30;17.30;;;10.60;;
15677;SDS011;7939;50.814;6.368;2023-04-29T07:10:57;17.38;;;10.35;;
15677;SDS011;7939;50.814;6.368;2023-04-29T07:13:24;19.38;;;11.50;;
15677;SDS011;7939;50.814;6.368;2023-04-29T07:15:51;18.52;;;10.93;;
15677;SDS011;7939;50.814;6.368;2023-04-29T07:18:17;19.10;;;11.25;;
15677;SDS011;7939;50.814;6.368;2023-04-29T07:20:46;19.05;;;11.50;;
15677;SDS011;7939;50.814;6.368;2023-04-29T07:23:13;18.15;;;11.35;;
15677;SDS011;7939;50.814;6.368;2023-04-29T07:25:40;21.10;;;11.48;;
15677;SDS011;7939;50.814;6.368;2023-04-29T07:28:06;22.48;;;12.45;;
15677;SDS011;7939;50.814;6.368;2023-04-29T07:30:33;22.08;;;12.32;;
15677;SDS011;7939;50.814;6.368;2023-04-29T07:33:00;21.92;;;12.20;;
15677;SDS011;7939;50.814;6.368;2023-04-29T07:35:28;19.42;;;11.18;;
15677;SDS011;7939;50.814;6.368;2023-04-29T07:37:56;19.73;;;11.68;;
15677;SDS011;7939;50.814;6.368;2023-04-29T07:40:22;18.90;;;11.18;;
15677;SDS011;7939;50.814;6.368;2023-04-29T07:42:49;20.65;;;10.90;;
15677;SDS011;7939;50.814;6.368;2023-04-29T07:45:16;17.10;;;11.13;;
15677;SDS011;7939;50.814;6.368;2023-04-29T07:47:43;17.42;;;10.23;;
15677;SDS011;7939;50.814;6.368;2023-04-29T07:50:10;17.77;;;10.43;;
15677;SDS011;7939;50.814;6.368;2023-04-29T07:52:36;16.70;;;9.98;;
15677;SDS011;7939;50.814;6.368;2023-04-29T07:55:05;15.05;;;9.55;;
15677;SDS011;7939;50.814;6.368;2023-04-29T07:57:31;16.65;;;10.02;;
15677;SDS011;7939;50.814;6.368;2023-04-29T07:59:58;18.10;;;10.77;;
15677;SDS011;7939;50.814;6.368;2023-04-29T08:02:25;18.17;;;11.52;;
15677;SDS011;7939;50.814;6.368;2023-04-29T08:04:51;17.63;;;9.93;;
15677;SDS011;7939;50.814;6.368;2023-04-29T08:07:19;15.35;;;9.60;;
15677;SDS011;7939;50.814;6.368;2023-04-29T08:09:46;17.77;;;9.93;;
15677;SDS011;7939;50.814;6.368;2023-04-29T08:12:14;16.23;;;9.77;;
15677;SDS011;7939;50.814;6.368;2023-04-29T08:14:41;15.43;;;10.07;;
15677;SDS011;7939;50.814;6.368;2023-04-29T08:17:07;18.02;;;11.13;;
15677;SDS011;7939;50.814;6.368;2023-04-29T08:19:34;18.13;;;11.02;;
15677;SDS011;7939;50.814;6.368;2023-04-29T08:22:01;16.55;;;11.15;;
15677;SDS011;7939;50.814;6.368;2023-04-29T08:24:28;19.20;;;11.13;;
15677;SDS011;7939;50.814;6.368;2023-04-29T08:26:55;18.55;;;11.65;;
15677;SDS011;7939;50.814;6.368;2023-04-29T08:29:24;23.77;;;12.25;;
15677;SDS011;7939;50.814;6.368;2023-04-29T08:31:51;19.92;;;11.85;;
15677;SDS011;7939;50.814;6.368;2023-04-29T08:34:17;17.05;;;11.57;;
15677;SDS011;7939;50.814;6.368;2023-04-29T08:36:44;21.58;;;12.23;;
15677;SDS011;7939;50.814;6.368;2023-04-29T08:39:13;21.17;;;12.38;;
15677;SDS011;7939;50.814;6.368;2023-04-29T08:41:40;20.17;;;12.02;;
15677;SDS011;7939;50.814;6.368;2023-04-29T08:44:09;19.42;;;13.20;;
15677;SDS011;7939;50.814;6.368;2023-04-29T08:46:37;20.17;;;11.80;;
15677;SDS011;7939;50.814;6.368;2023-04-29T08:49:05;22.15;;;12.52;;
15677;SDS011;7939;50.814;6.368;2023-04-29T08:51:33;17.35;;;11.07;;
15677;SDS011;7939;50.814;6.368;2023-04-29T08:53:59;23.20;;;12.45;;
15677;SDS011;7939;50.814;6.368;2023-04-29T08:56:26;18.05;;;11.98;;
15677;SDS011;7939;50.814;6.368;2023-04-29T08:58:56;23.13;;;11.73;;
15677;SDS011;7939;50.814;6.368;2023-04-29T09:01:24;21.60;;;11.85;;
15677;SDS011;7939;50.814;6.368;2023-04-29T09:03:55;19.17;;;11.80;;
15677;SDS011;7939;50.814;6.368;2023-04-29T09:06:29;20.77;;;11.45;;
15677;SDS011;7939;50.814;6.368;2023-04-29T09:08:57;18.70;;;11.43;;
15677;SDS011;7939;50.814;6.368;2023-04-29T09:11:25;21.05;;;12.85;;
15677;SDS011;7939;50.814;6.368;2023-04-29T09:13:57;22.13;;;12.25;;
15677;SDS011;7939;50.814;6.368;2023-04-29T09:16:24;16.77;;;11.50;;
15677;SDS011;7939;50.814;6.368;2023-04-29T09:18:51;18.40;;;11.27;;
15677;SDS011;7939;50.814;6.368;2023-04-29T09:21:20;17.80;;;12.20;;
15677;SDS011;7939;50.814;6.368;2023-04-29T09:23:49;16.85;;;11.30;;
15677;SDS011;7939;50.814;6.368;2023-04-29T09:26:17;16.88;;;10.88;;
15677;SDS011;7939;50.814;6.368;2023-04-29T09:28:44;17.92;;;9.77;;
15677;SDS011;7939;50.814;6.368;2023-04-29T09:31:11;15.43;;;9.15;;
15677;SDS011;7939;50.814;6.368;2023-04-29T09:33:48;13.13;;;8.02;;
15677;SDS011;7939;50.814;6.368;2023-04-29T09:39:03;17.02;;;8.77;;
15677;SDS011;7939;50.814;6.368;2023-04-29T09:41:35;14.52;;;9.30;;
15677;SDS011;7939;50.814;6.368;2023-04-29T09:44:03;15.15;;;9.30;;
15677;SDS011;7939;50.814;6.368;2023-04-29T09:46:31;12.10;;;8.38;;
15677;SDS011;7939;50.814;6.368;2023-04-29T09:48:58;16.33;;;10.18;;
15677;SDS011;7939;50.814;6.368;2023-04-29T09:51:25;13.95;;;9.13;;
15677;SDS011;7939;50.814;6.368;2023-04-29T09:53:54;15.95;;;10.10;;
15677;SDS011;7939;50.814;6.368;2023-04-29T09:56:20;18.00;;;10.57;;
15677;SDS011;7939;50.814;6.368;2023-04-29T09:58:47;16.30;;;10.20;;
15677;SDS011;7939;50.814;6.368;2023-04-29T10:01:14;15.48;;;9.75;;
15677;SDS011;7939;50.814;6.368;2023-04-29T10:03:44;18.38;;;10.73;;
15677;SDS011;7939;50.814;6.368;2023-04-29T10:06:13;18.02;;;11.48;;
15677;SDS011;7939;50.814;6.368;2023-04-29T10:08:42;16.15;;;10.27;;
15677;SDS011;7939;50.814;6.368;2023-04-29T10:11:10;19.35;;;11.63;;
15677;SDS011;7939;50.814;6.368;2023-04-29T10:13:39;17.50;;;10.73;;
15677;SDS011;7939;50.814;6.368;2023-04-29T10:16:10;17.23;;;10.93;;
15677;SDS011;7939;50.814;6.368;2023-04-29T10:18:51;18.48;;;11.35;;
15677;SDS011;7939;50.814;6.368;2023-04-29T10:21:20;16.80;;;10.57;;
15677;SDS011;7939;50.814;6.368;2023-04-29T10:23:52;18.65;;;11.00;;
15677;SDS011;7939;50.814;6.368;2023-04-29T10:26:23;18.27;;;10.70;;
15677;SDS011;7939;50.814;6.368;2023-04-29T10:28:53;17.83;;;11.02;;
15677;SDS011;7939;50.814;6.368;2023-04-29T10:31:21;17.25;;;10.07;;
15677;SDS011;7939;50.814;6.368;2023-04-29T10:33:50;15.85;;;10.20;;
15677;SDS011;7939;50.814;6.368;2023-04-29T10:36:21;17.92;;;10.38;;
15677;SDS011;7939;50.814;6.368;2023-04-29T10:38:49;15.57;;;9.95;;
15677;SDS011;7939;50.814;6.368;2023-04-29T10:41:19;15.02;;;10.43;;
15677;SDS011;7939;50.814;6.368;2023-04-29T10:43:50;14.48;;;9.57;;
15677;SDS011;7939;50.814;6.368;2023-04-29T10:46:17;21.27;;;12.23;;
15677;SDS011;7939;50.814;6.368;2023-04-29T10:48:45;20.73;;;11.13;;
15677;SDS011;7939;50.814;6.368;2023-04-29T10:51:12;16.85;;;10.15;;
15677;SDS011;7939;50.814;6.368;2023-04-29T10:54:00;18.52;;;10.55;;
15677;SDS011;7939;50.814;6.368;2023-04-29T10:56:41;18.00;;;10.52;;
15677;SDS011;7939;50.814;6.368;2023-04-29T10:59:15;14.15;;;10.32;;
15677;SDS011;7939;50.814;6.368;2023-04-29T11:01:46;15.00;;;9.65;;
15677;SDS011;7939;50.814;6.368;2023-04-29T11:04:14;14.70;;;9.50;;
15677;SDS011;7939;50.814;6.368;2023-04-29T11:06:43;14.52;;;9.38;;
15677;SDS011;7939;50.814;6.368;2023-04-29T11:09:13;14.55;;;9.20;;
15677;SDS011;7939;50.814;6.368;2023-04-29T11:11:45;18.52;;;9.82;;
15677;SDS011;7939;50.814;6.368;2023-04-29T11:14:19;13.63;;;8.77;;
15677;SDS011;7939;50.814;6.368;2023-04-29T11:16:48;18.23;;;11.25;;
15677;SDS011;7939;50.814;6.368;2023-04-29T11:19:17;19.65;;;11.40;;
15677;SDS011;7939;50.814;6.368;2023-04-29T11:21:44;15.90;;;9.82;;
15677;SDS011;7939;50.814;6.368;2023-04-29T11:24:12;15.40;;;10.48;;
15677;SDS011;7939;50.814;6.368;2023-04-29T11:26:41;14.68;;;9.85;;
15677;SDS011;7939;50.814;6.368;2023-04-29T11:29:08;17.02;;;10.73;;
15677;SDS011;7939;50.814;6.368;2023-04-29T11:31:37;17.73;;;10.38;;
15677;SDS011;7939;50.814;6.368;2023-04-29T11:34:04;15.95;;;11.00;;
15677;SDS011;7939;50.814;6.368;2023-04-29T11:36:31;21.38;;;12.30;;
15677;SDS011;7939;50.814;6.368;2023-04-29T11:38:59;22.15;;;13.23;;
15677;SDS011;7939;50.814;6.368;2023-04-29T11:41:26;17.85;;;12.40;;
15677;SDS011;7939;50.814;6.368;2023-04-29T11:43:53;22.20;;;13.30;;
15677;SDS011;7939;50.814;6.368;2023-04-29T11:46:21;19.52;;;12.90;;
15677;SDS011;7939;50.814;6.368;2023-04-29T11:48:49;19.10;;;12.93;;
15677;SDS011;7939;50.814;6.368;2023-04-29T11:51:16;22.25;;;13.82;;
15677;SDS011;7939;50.814;6.368;2023-04-29T11:53:44;17.58;;;12.55;;
15677;SDS011;7939;50.814;6.368;2023-04-29T11:56:11;18.25;;;12.55;;
15677;SDS011;7939;50.814;6.368;2023-04-29T11:58:38;20.48;;;13.02;;
15677;SDS011;7939;50.814;6.368;2023-04-29T12:01:04;19.55;;;13.07;;
15677;SDS011;7939;50.814;6.368;2023-04-29T12:03:33;23.60;;;13.88;;
15677;SDS011;7939;50.814;6.368;2023-04-29T12:06:02;21.02;;;13.77;;
15677;SDS011;7939;50.814;6.368;2023-04-29T12:08:28;22.55;;;14.77;;
15677;SDS011;7939;50.814;6.368;2023-04-29T12:10:58;28.90;;;16.88;;
15677;SDS011;7939;50.814;6.368;2023-04-29T12:13:26;26.35;;;16.13;;
15677;SDS011;7939;50.814;6.368;2023-04-29T12:15:53;22.48;;;15.07;;
15677;SDS011;7939;50.814;6.368;2023-04-29T12:18:21;24.85;;;14.85;;
15677;SDS011;7939;50.814;6.368;2023-04-29T12:20:48;24.20;;;15.13;;
15677;SDS011;7939;50.814;6.368;2023-04-29T12:23:19;26.83;;;15.73;;
15677;SDS011;7939;50.814;6.368;2023-04-29T12:25:48;22.65;;;15.20;;
15677;SDS011;7939;50.814;6.368;2023-04-29T12:28:16;26.40;;;15.70;;
15677;SDS011;7939;50.814;6.368;2023-04-29T12:30:43;28.52;;;16.50;;
15677;SDS011;7939;50.814;6.368;2023-04-29T12:33:14;23.15;;;15.30;;
15677;SDS011;7939;50.814;6.368;2023-04-29T12:35:41;26.27;;;15.90;;
15677;SDS011;7939;50.814;6.368;2023-04-29T12:38:08;24.27;;;16.38;;
15677;SDS011;7939;50.814;6.368;2023-04-29T12:40:36;25.60;;;16.45;;
15677;SDS011;7939;50.814;6.368;2023-04-29T12:43:06;27.25;;;17.17;;
15677;SDS011;7939;50.814;6.368;2023-04-29T12:45:33;28.27;;;16.92;;
15677;SDS011;7939;50.814;6.368;2023-04-29T12:48:00;26.65;;;16.90;;
15677;SDS011;7939;50.814;6.368;2023-04-29T12:50:31;24.25;;;16.33;;
15677;SDS011;7939;50.814;6.368;2023-04-29T12:53:00;26.85;;;16.30;;
15677;SDS011;7939;50.814;6.368;2023-04-29T12:55:27;30.58;;;17.60;;
15677;SDS011;7939;50.814;6.368;2023-04-29T12:57:56;24.67;;;16.65;;
15677;SDS011;7939;50.814;6.368;2023-04-29T13:00:23;29.92;;;18.35;;
15677;SDS011;7939;50.814;6.368;2023-04-29T13:02:50;29.83;;;18.52;;
15677;SDS011;7939;50.814;6.368;2023-04-29T13:05:16;26.10;;;16.85;;
15677;SDS011;7939;50.814;6.368;2023-04-29T13:07:43;23.52;;;15.50;;
15677;SDS011;7939;50.814;6.368;2023-04-29T13:10:10;30.38;;;17.35;;
15677;SDS011;7939;50.814;6.368;2023-04-29T13:12:38;23.35;;;16.10;;
15677;SDS011;7939;50.814;6.368;2023-04-29T13:15:06;30.15;;;16.83;;
15677;SDS011;7939;50.814;6.368;2023-04-29T13:17:35;31.52;;;16.58;;
15677;SDS011;7939;50.814;6.368;2023-04-29T13:20:03;25.95;;;16.00;;
15677;SDS011;7939;50.814;6.368;2023-04-29T13:22:30;28.15;;;18.17;;
15677;SDS011;7939;50.814;6.368;2023-04-29T13:24:57;31.75;;;17.50;;
15677;SDS011;7939;50.814;6.368;2023-04-29T13:27:24;26.92;;;17.25;;
15677;SDS011;7939;50.814;6.368;2023-04-29T13:29:50;28.88;;;17.90;;
15677;SDS011;7939;50.814;6.368;2023-04-29T13:32:18;27.38;;;17.58;;
15677;SDS011;7939;50.814;6.368;2023-04-29T13:34:47;28.92;;;17.55;;
15677;SDS011;7939;50.814;6.368;2023-04-29T13:37:15;28.10;;;17.67;;
15677;SDS011;7939;50.814;6.368;2023-04-29T13:39:41;27.73;;;18.15;;
15677;SDS011;7939;50.814;6.368;2023-04-29T13:42:08;28.65;;;18.02;;
15677;SDS011;7939;50.814;6.368;2023-04-29T13:44:35;24.70;;;17.73;;
15677;SDS011;7939;50.814;6.368;2023-04-29T13:47:01;26.98;;;17.65;;
15677;SDS011;7939;50.814;6.368;2023-04-29T13:49:31;35.25;;;19.45;;
15677;SDS011;7939;50.814;6.368;2023-04-29T13:51:58;31.13;;;18.90;;
15677;SDS011;7939;50.814;6.368;2023-04-29T13:54:25;27.92;;;18.65;;
15677;SDS011;7939;50.814;6.368;2023-04-29T13:56:51;28.58;;;18.05;;
15677;SDS011;7939;50.814;6.368;2023-04-29T13:59:18;28.98;;;17.23;;
15677;SDS011;7939;50.814;6.368;2023-04-29T14:01:45;30.15;;;18.02;;
15677;SDS011;7939;50.814;6.368;2023-04-29T14:04:12;30.10;;;17.98;;
15677;SDS011;7939;50.814;6.368;2023-04-29T14:06:40;27.83;;;18.48;;
15677;SDS011;7939;50.814;6.368;2023-04-29T14:09:08;25.88;;;17.95;;
15677;SDS011;7939;50.814;6.368;2023-04-29T14:11:34;30.90;;;17.92;;
15677;SDS011;7939;50.814;6.368;2023-04-29T14:14:01;27.95;;;17.67;;
15677;SDS011;7939;50.814;6.368;2023-04-29T14:16:28;26.67;;;17.30;;
15677;SDS011;7939;50.814;6.368;2023-04-29T14:18:54;26.77;;;16.05;;
15677;SDS011;7939;50.814;6.368;2023-04-29T14:21:21;23.23;;;15.73;;
15677;SDS011;7939;50.814;6.368;2023-04-29T14:23:49;29.05;;;17.38;;
15677;SDS011;7939;50.814;6.368;2023-04-29T14:26:16;27.23;;;16.88;;
15677;SDS011;7939;50.814;6.368;2023-04-29T14:28:43;25.65;;;15.73;;
15677;SDS011;7939;50.814;6.368;2023-04-29T14:31:10;23.52;;;15.95;;
15677;SDS011;7939;50.814;6.368;2023-04-29T14:33:37;27.13;;;16.98;;
15677;SDS011;7939;50.814;6.368;2023-04-29T14:36:04;23.73;;;16.33;;
15677;SDS011;7939;50.814;6.368;2023-04-29T14:38:31;23.45;;;16.33;;
15677;SDS011;7939;50.814;6.368;2023-04-29T14:41:00;22.40;;;15.02;;
15677;SDS011;7939;50.814;6.368;2023-04-29T14:43:26;23.40;;;15.57;;